Time;durP1;ratioP1;P1;durP2;ratioP2;P2;SDS_P1;SDS_P2;PMS_P1;PMS_P2;Temp;Humidity;BMP_temperature;BMP_pressure;BME280_temperature;BME280_humidity;BME280_pressure;Samples;Min_cycle;Max_cycle;Signal;HPM_P1;HPM_P2
2024/02/10 00:00:09;;;;;;;4.05;2.65;;;11.70;99.90;;;;;;4267509;27;20039;-60
2024/02/10 00:02:12;;;;;;;5.15;2.95;;;11.60;99.90;;;;;;4267716;27;20110;-64
2024/02/10 00:04:16;;;;;;;5.70;3.13;;;11.60;99.90;;;;;;4267899;27;20129;-60
2024/02/10 00:06:18;;;;;;;5.30;3.35;;;11.60;99.90;;;;;;4268190;27;20051;-61
2024/02/10 00:08:22;;;;;;;6.75;3.00;;;11.60;99.90;;;;;;4267955;27;20081;-60
2024/02/10 00:10:26;;;;;;;4.20;2.85;;;11.60;99.90;;;;;;4268274;27;20504;-61
2024/02/10 00:12:29;;;;;;;6.00;3.03;;;11.60;99.90;;;;;;4268493;27;20039;-61
2024/02/10 00:14:36;;;;;;;3.63;2.60;;;11.60;99.90;;;;;;4267867;27;20054;-60
2024/02/10 00:16:38;;;;;;;7.13;2.85;;;11.70;99.90;;;;;;4267433;27;20043;-61
2024/02/10 00:18:41;;;;;;;4.40;2.63;;;11.60;99.90;;;;;;4267819;27;20060;-61
2024/02/10 00:20:43;;;;;;;5.15;2.38;;;11.60;99.90;;;;;;4268001;27;20049;-62
2024/02/10 00:22:47;;;;;;;5.00;2.58;;;11.60;99.90;;;;;;4268150;27;20470;-60
2024/02/10 00:24:49;;;;;;;4.47;2.75;;;11.70;99.90;;;;;;4268859;27;20042;-60
2024/02/10 00:26:52;;;;;;;7.22;3.30;;;11.60;99.90;;;;;;4270319;27;20080;-61
2024/02/10 00:28:55;;;;;;;7.03;3.40;;;11.60;99.90;;;;;;4269150;27;20043;-60
2024/02/10 00:30:59;;;;;;;8.80;2.90;;;11.60;99.90;;;;;;4267812;27;20096;-61
2024/02/10 00:33:04;;;;;;;5.60;2.78;;;11.50;99.90;;;;;;4267391;27;20103;-61
2024/02/10 00:35:06;;;;;;;5.65;2.65;;;11.60;99.90;;;;;;4267281;27;20062;-60
2024/02/10 00:37:09;;;;;;;4.43;2.60;;;11.50;99.90;;;;;;4267280;27;20053;-59
2024/02/10 00:39:12;;;;;;;6.18;2.67;;;11.50;99.90;;;;;;4267409;27;20055;-60
2024/02/10 00:41:16;;;;;;;3.83;2.55;;;11.50;99.90;;;;;;4267707;27;20047;-60
2024/02/10 00:43:19;;;;;;;3.67;2.47;;;11.60;99.90;;;;;;4267322;27;20533;-60
2024/02/10 00:45:24;;;;;;;3.90;2.72;;;11.60;99.90;;;;;;4266786;27;20129;-60
2024/02/10 00:47:28;;;;;;;4.10;2.40;;;11.60;99.90;;;;;;4267444;27;20051;-60
2024/02/10 00:49:33;;;;;;;4.07;2.88;;;11.50;99.90;;;;;;4267096;27;20062;-60
2024/02/10 00:51:35;;;;;;;6.70;2.90;;;11.40;99.90;;;;;;4267128;27;20050;-60
2024/02/10 00:53:39;;;;;;;5.45;2.88;;;11.40;99.90;;;;;;4267135;27;20058;-61
2024/02/10 00:55:42;;;;;;;7.05;3.10;;;11.40;99.90;;;;;;4267201;27;20069;-60
2024/02/10 00:57:46;;;;;;;5.00;2.97;;;11.30;99.90;;;;;;4267320;27;20067;-60
2024/02/10 00:59:49;;;;;;;5.85;3.25;;;11.30;99.90;;;;;;4266786;27;20554;-60
2024/02/10 01:01:53;;;;;;;6.35;3.05;;;11.20;99.90;;;;;;4267378;27;20043;-60
2024/02/10 01:04:01;;;;;;;6.50;3.25;;;11.20;99.90;;;;;;4249198;27;20502;-64
2024/02/10 01:06:08;;;;;;;4.85;3.10;;;11.20;99.90;;;;;;4267519;27;20402;-60
2024/02/10 01:08:10;;;;;;;4.45;3.17;;;11.20;99.90;;;;;;4267012;27;20054;-60
2024/02/10 01:10:12;;;;;;;6.03;3.10;;;11.10;99.90;;;;;;4266967;27;20459;-63
2024/02/10 01:12:14;;;;;;;7.32;3.55;;;11.10;99.90;;;;;;4266983;27;20481;-60
2024/02/10 01:14:16;;;;;;;4.93;3.22;;;11.00;99.90;;;;;;4266770;27;20042;-61
2024/02/10 01:16:19;;;;;;;4.70;3.17;;;11.10;99.90;;;;;;4267154;27;20047;-60
2024/02/10 01:18:21;;;;;;;6.68;3.88;;;11.10;99.90;;;;;;4248715;27;20375;-60
2024/02/10 01:20:24;;;;;;;4.63;3.30;;;11.20;99.90;;;;;;4268234;27;20047;-62
2024/02/10 01:22:29;;;;;;;4.85;2.92;;;11.20;99.90;;;;;;4268570;27;20464;-60
2024/02/10 01:24:33;;;;;;;6.45;3.50;;;11.20;99.90;;;;;;4268670;27;20039;-64
2024/02/10 01:26:35;;;;;;;5.82;3.60;;;11.20;99.90;;;;;;4268666;27;20440;-60
2024/02/10 01:28:37;;;;;;;6.90;3.30;;;11.20;99.90;;;;;;4268178;27;20087;-60
2024/02/10 01:30:41;;;;;;;6.10;3.50;;;11.20;99.90;;;;;;4250515;27;20043;-63
2024/02/10 01:32:43;;;;;;;4.88;3.38;;;11.20;99.90;;;;;;4267780;27;20095;-66
2024/02/10 01:34:46;;;;;;;5.65;3.30;;;11.30;99.90;;;;;;4268593;27;20047;-59
2024/02/10 01:36:50;;;;;;;4.45;3.45;;;11.30;99.90;;;;;;4266754;27;20043;-60
2024/02/10 01:38:52;;;;;;;7.13;3.28;;;11.30;99.90;;;;;;4267014;27;20057;-60
2024/02/10 01:40:56;;;;;;;6.88;3.63;;;11.30;99.90;;;;;;4266748;27;20046;-60
2024/02/10 01:42:58;;;;;;;5.68;3.05;;;11.30;99.90;;;;;;4266035;27;20481;-60
2024/02/10 01:45:01;;;;;;;4.82;3.50;;;11.20;99.90;;;;;;4266398;27;20055;-59
2024/02/10 01:47:04;;;;;;;4.43;3.08;;;11.20;99.90;;;;;;4266622;27;20043;-59
2024/02/10 01:49:06;;;;;;;4.75;3.38;;;11.20;99.90;;;;;;4266344;27;20545;-59
2024/02/10 01:51:10;;;;;;;5.20;3.30;;;11.20;99.90;;;;;;4266208;27;20046;-61
2024/02/10 01:53:13;;;;;;;6.72;3.63;;;11.20;99.90;;;;;;4266644;27;20145;-62
2024/02/10 01:55:15;;;;;;;6.07;3.38;;;11.30;99.90;;;;;;4266017;27;20527;-62
2024/02/10 01:57:18;;;;;;;5.72;3.42;;;11.20;99.90;;;;;;4265877;27;20043;-62
2024/02/10 01:59:21;;;;;;;7.57;3.42;;;11.30;99.90;;;;;;4266442;27;20108;-61
2024/02/10 02:01:24;;;;;;;5.90;3.72;;;11.20;99.90;;;;;;4265938;27;20528;-59
2024/02/10 02:03:26;;;;;;;5.18;3.28;;;11.20;99.90;;;;;;4266025;27;20087;-59
2024/02/10 02:05:32;;;;;;;5.50;3.78;;;11.20;99.90;;;;;;4265980;27;20053;-59
2024/02/10 02:07:35;;;;;;;5.60;3.70;;;11.20;99.90;;;;;;4266180;27;20174;-62
2024/02/10 02:09:39;;;;;;;6.85;3.97;;;11.20;99.90;;;;;;4268957;27;20051;-60
2024/02/10 02:11:46;;;;;;;6.63;4.28;;;11.20;99.90;;;;;;4266315;27;20042;-59
2024/02/10 02:13:51;;;;;;;8.10;4.20;;;11.20;99.90;;;;;;4266077;27;20050;-60
2024/02/10 02:15:57;;;;;;;7.88;4.55;;;11.10;99.90;;;;;;4265779;27;20042;-59
2024/02/10 02:17:59;;;;;;;9.40;4.22;;;11.20;99.90;;;;;;4265334;27;20050;-59
2024/02/10 02:20:02;;;;;;;6.38;4.03;;;11.20;99.90;;;;;;4265236;27;20038;-60
2024/02/10 02:22:05;;;;;;;6.32;4.32;;;11.20;99.90;;;;;;4265701;27;20096;-59
2024/02/10 02:24:09;;;;;;;5.13;3.90;;;11.20;99.90;;;;;;4265622;27;20082;-59
2024/02/10 02:26:11;;;;;;;8.68;4.22;;;11.10;99.90;;;;;;4265463;27;20537;-58
2024/02/10 02:28:14;;;;;;;5.00;4.00;;;11.10;99.90;;;;;;4265998;27;20478;-61
2024/02/10 02:30:16;;;;;;;6.63;4.25;;;11.10;99.90;;;;;;4267020;27;20126;-60
2024/02/10 02:32:18;;;;;;;7.28;4.22;;;11.10;99.90;;;;;;4266669;27;20047;-66
2024/02/10 02:34:21;;;;;;;5.75;4.00;;;11.20;99.90;;;;;;4266724;27;20043;-59
2024/02/10 02:36:26;;;;;;;5.90;4.28;;;11.20;99.90;;;;;;4266125;27;20046;-59
2024/02/10 02:38:28;;;;;;;5.68;4.18;;;11.20;99.90;;;;;;4248182;27;20057;-60
2024/02/10 02:40:32;;;;;;;6.20;3.95;;;11.20;99.90;;;;;;4267706;27;20045;-61
2024/02/10 02:42:34;;;;;;;7.47;3.70;;;11.10;99.90;;;;;;4268462;27;20062;-59
2024/02/10 02:44:39;;;;;;;5.85;3.67;;;11.00;99.90;;;;;;4268375;27;20043;-61
2024/02/10 02:46:41;;;;;;;6.30;3.28;;;11.10;99.90;;;;;;4268151;27;20057;-62
2024/02/10 02:48:43;;;;;;;7.20;3.53;;;11.00;99.90;;;;;;4267941;27;20453;-61
2024/02/10 02:50:46;;;;;;;4.40;3.30;;;11.00;99.90;;;;;;4266458;27;20391;-59
2024/02/10 02:52:50;;;;;;;5.03;3.63;;;11.10;99.90;;;;;;4268715;27;20047;-60
2024/02/10 02:54:53;;;;;;;6.78;3.22;;;11.00;99.90;;;;;;4266546;27;20119;-61
2024/02/10 02:57:00;;;;;;;5.70;3.13;;;11.00;99.90;;;;;;4266050;27;20066;-66
2024/02/10 02:59:05;;;;;;;6.50;3.75;;;10.90;99.90;;;;;;4265488;27;20042;-63
2024/02/10 03:01:08;;;;;;;5.53;3.80;;;10.90;99.90;;;;;;4265474;27;20095;-62
2024/02/10 03:03:10;;;;;;;6.70;3.85;;;10.90;99.90;;;;;;4265645;27;20509;-63
2024/02/10 03:05:13;;;;;;;4.57;3.30;;;10.90;99.90;;;;;;4265565;27;20043;-63
2024/02/10 03:07:16;;;;;;;4.93;3.22;;;10.90;99.90;;;;;;4265564;27;20072;-62
2024/02/10 03:09:18;;;;;;;6.28;3.78;;;10.90;99.90;;;;;;4265039;27;20424;-62
2024/02/10 03:11:21;;;;;;;4.13;3.33;;;10.90;99.90;;;;;;4266006;27;20453;-62
2024/02/10 03:13:24;;;;;;;7.38;4.20;;;10.90;99.90;;;;;;4265915;27;20047;-63
2024/02/10 03:15:27;;;;;;;5.78;3.90;;;11.00;99.90;;;;;;4266023;27;20068;-62
2024/02/10 03:17:30;;;;;;;5.47;3.83;;;10.90;99.90;;;;;;4266506;27;20043;-62
2024/02/10 03:19:33;;;;;;;8.50;4.25;;;10.90;99.90;;;;;;4265740;27;20051;-62
2024/02/10 03:21:35;;;;;;;6.78;4.25;;;10.90;99.90;;;;;;4265642;27;20047;-63
2024/02/10 03:23:39;;;;;;;6.22;4.00;;;10.90;99.90;;;;;;4266490;27;20525;-62
2024/02/10 03:25:42;;;;;;;8.75;4.50;;;10.90;99.90;;;;;;4266514;27;20043;-66
2024/02/10 03:27:44;;;;;;;10.55;3.83;;;10.80;99.90;;;;;;4266643;27;20039;-63
2024/02/10 03:29:47;;;;;;;6.30;4.22;;;10.80;99.90;;;;;;4266519;27;20053;-62
2024/02/10 03:31:49;;;;;;;6.20;3.95;;;10.80;99.90;;;;;;4266920;27;20464;-62
2024/02/10 03:33:52;;;;;;;8.43;4.25;;;10.70;99.90;;;;;;4268661;27;20070;-62
2024/02/10 03:35:56;;;;;;;7.15;4.00;;;10.80;99.90;;;;;;4250113;27;20043;-63
2024/02/10 03:37:58;;;;;;;7.38;4.32;;;10.70;99.90;;;;;;4268165;27;20486;-62
2024/02/10 03:40:03;;;;;;;8.65;4.50;;;10.70;99.90;;;;;;4268361;27;20045;-62
2024/02/10 03:42:05;;;;;;;6.50;4.20;;;10.70;99.90;;;;;;4268289;27;20051;-62
2024/02/10 03:44:08;;;;;;;6.60;3.95;;;10.70;99.90;;;;;;4268236;27;20394;-62
2024/02/10 03:46:13;;;;;;;5.40;3.92;;;10.70;99.90;;;;;;4268534;27;20496;-62
2024/02/10 03:48:16;;;;;;;6.90;4.30;;;10.70;99.90;;;;;;4268480;27;20047;-62
2024/02/10 03:50:18;;;;;;;7.80;4.15;;;10.60;99.90;;;;;;4249896;27;20047;-62
2024/02/10 03:52:20;;;;;;;7.13;3.90;;;10.60;99.90;;;;;;4268870;27;20047;-62
2024/02/10 03:54:22;;;;;;;5.18;4.07;;;10.60;99.90;;;;;;4269537;27;20086;-62
2024/02/10 03:56:26;;;;;;;6.55;4.00;;;10.60;99.90;;;;;;4268224;27;20122;-61
2024/02/10 03:58:29;;;;;;;7.88;4.82;;;10.60;99.90;;;;;;4268067;27;20043;-62
2024/02/10 04:00:36;;;;;;;6.05;3.97;;;10.60;99.90;;;;;;4268238;27;20046;-62
2024/02/10 04:02:40;;;;;;;5.93;4.00;;;10.60;99.90;;;;;;4268595;27;20095;-62
2024/02/10 04:04:42;;;;;;;5.38;4.18;;;10.70;99.90;;;;;;4268547;27;20070;-62
2024/02/10 04:06:46;;;;;;;7.38;4.45;;;10.60;99.90;;;;;;4268210;27;20081;-62
2024/02/10 04:08:48;;;;;;;7.13;4.45;;;10.60;99.90;;;;;;4267749;27;20515;-62
2024/02/10 04:10:50;;;;;;;7.43;4.20;;;10.60;99.90;;;;;;4267694;27;20043;-62
2024/02/10 04:12:52;;;;;;;6.32;4.22;;;10.60;99.90;;;;;;4267866;27;20039;-62
2024/02/10 04:14:58;;;;;;;10.70;5.40;;;10.60;99.90;;;;;;4267728;27;20043;-62
2024/02/10 04:17:00;;;;;;;6.88;4.45;;;10.60;99.90;;;;;;4267755;27;20046;-62
2024/02/10 04:19:04;;;;;;;12.13;4.63;;;10.60;99.90;;;;;;4267454;27;20049;-62
2024/02/10 04:21:07;;;;;;;6.20;4.18;;;10.60;99.90;;;;;;4267718;27;20058;-62
2024/02/10 04:23:11;;;;;;;6.50;4.60;;;10.60;99.90;;;;;;4267032;27;20122;-65
2024/02/10 04:25:14;;;;;;;7.10;4.03;;;10.60;99.90;;;;;;4267760;27;20047;-62
2024/02/10 04:27:18;;;;;;;6.22;4.95;;;10.50;99.90;;;;;;4267604;27;20118;-61
2024/02/10 04:29:20;;;;;;;9.15;4.35;;;10.50;99.90;;;;;;4267652;27;20046;-62
2024/02/10 04:31:22;;;;;;;6.35;4.13;;;10.50;99.90;;;;;;4267826;27;20043;-62
2024/02/10 04:33:24;;;;;;;10.90;5.47;;;10.50;99.90;;;;;;4267285;27;20042;-62
2024/02/10 04:35:27;;;;;;;8.32;4.57;;;10.50;99.90;;;;;;4267589;27;20400;-62
2024/02/10 04:37:29;;;;;;;8.52;4.80;;;10.50;99.90;;;;;;4267706;27;20473;-64
2024/02/10 04:39:34;;;;;;;9.00;5.53;;;10.50;99.90;;;;;;4268736;27;20118;-62
2024/02/10 04:41:36;;;;;;;6.95;5.38;;;10.50;99.90;;;;;;4271103;27;20085;-62
2024/02/10 04:43:45;;;;;;;9.10;5.47;;;10.40;99.90;;;;;;4268144;27;20118;-61
2024/02/10 04:45:48;;;;;;;7.55;5.13;;;10.40;99.90;;;;;;4268029;27;20042;-62
2024/02/10 04:47:56;;;;;;;8.27;5.30;;;10.40;99.90;;;;;;4267565;27;20077;-64
2024/02/10 04:50:01;;;;;;;7.22;5.05;;;10.40;99.90;;;;;;4267531;27;20046;-62
2024/02/10 04:52:06;;;;;;;9.23;5.20;;;10.40;99.90;;;;;;4267048;27;20042;-62
2024/02/10 04:54:09;;;;;;;7.60;4.95;;;10.40;99.90;;;;;;4267422;27;20149;-62
2024/02/10 04:56:16;;;;;;;11.85;6.03;;;10.40;99.90;;;;;;4267569;27;20053;-63
2024/02/10 04:58:19;;;;;;;9.50;6.60;;;10.40;99.90;;;;;;4267095;27;20062;-62
2024/02/10 05:00:21;;;;;;;8.88;5.93;;;10.40;99.90;;;;;;4267171;27;20406;-62
2024/02/10 05:02:24;;;;;;;10.13;5.75;;;10.50;99.90;;;;;;4267187;27;20043;-62
2024/02/10 05:04:26;;;;;;;9.73;6.07;;;10.50;99.90;;;;;;4267169;27;20045;-62
2024/02/10 05:06:29;;;;;;;9.88;6.47;;;10.50;99.90;;;;;;4266791;27;20058;-65
2024/02/10 05:08:32;;;;;;;9.75;6.43;;;10.60;99.90;;;;;;4267058;27;20042;-62
2024/02/10 05:10:34;;;;;;;7.40;6.03;;;10.50;99.90;;;;;;4266991;27;20050;-62
2024/02/10 05:12:37;;;;;;;7.93;5.63;;;10.40;99.90;;;;;;4266732;27;20076;-62
2024/02/10 05:14:39;;;;;;;9.23;6.00;;;10.40;99.90;;;;;;4248557;27;20401;-62
2024/02/10 05:16:43;;;;;;;9.13;5.95;;;10.40;99.90;;;;;;4266799;27;20482;-62
2024/02/10 05:18:45;;;;;;;8.98;6.13;;;10.40;99.90;;;;;;4266723;27;20505;-62
2024/02/10 05:20:48;;;;;;;7.85;5.50;;;10.40;99.90;;;;;;4266316;27;20078;-62
2024/02/10 05:22:52;;;;;;;10.48;5.50;;;10.40;99.90;;;;;;4266692;27;20066;-61
2024/02/10 05:24:57;;;;;;;10.43;5.85;;;10.40;99.90;;;;;;4266823;27;20049;-62
2024/02/10 05:26:59;;;;;;;10.02;5.78;;;10.30;99.90;;;;;;4266834;27;20524;-62
2024/02/10 05:29:06;;;;;;;10.70;5.63;;;10.30;99.90;;;;;;4266661;27;20042;-62
2024/02/10 05:31:13;;;;;;;8.13;5.90;;;10.30;99.90;;;;;;4266603;27;20038;-62
2024/02/10 05:33:18;;;;;;;7.63;5.65;;;10.30;99.90;;;;;;4266728;27;20042;-62
2024/02/10 05:35:21;;;;;;;11.00;6.45;;;10.30;99.90;;;;;;4249348;27;20492;-62
2024/02/10 05:37:24;;;;;;;10.65;6.60;;;10.40;99.90;;;;;;4266609;27;20095;-62
2024/02/10 05:39:26;;;;;;;10.93;6.03;;;10.40;99.90;;;;;;4266355;27;20095;-61
2024/02/10 05:41:30;;;;;;;10.77;6.20;;;10.40;99.90;;;;;;4266077;27;20066;-62
2024/02/10 05:43:35;;;;;;;9.05;6.22;;;10.30;99.90;;;;;;4266439;27;20076;-62
2024/02/10 05:45:38;;;;;;;;;;;10.30;99.90;;;;;;4267023;27;20482;-62
2024/02/10 05:47:40;;;;;;;8.48;5.65;;;10.30;99.90;;;;;;4266192;27;19941;-62
2024/02/10 05:49:42;;;;;;;10.18;6.28;;;10.30;99.90;;;;;;4265936;27;20130;-62
2024/02/10 05:51:45;;;;;;;9.80;6.03;;;10.30;99.90;;;;;;4266017;27;20046;-62
2024/02/10 05:53:49;;;;;;;11.57;6.72;;;10.30;99.90;;;;;;4265868;27;20103;-62
2024/02/10 05:55:54;;;;;;;9.95;6.65;;;10.30;99.90;;;;;;4265269;27;20045;-62
2024/02/10 05:58:01;;;;;;;10.40;6.30;;;10.30;99.90;;;;;;4248016;27;20144;-61
2024/02/10 06:00:12;;;;;;;9.65;6.68;;;10.30;99.90;;;;;;4266128;27;20049;-62
2024/02/10 06:02:16;;;;;;;10.02;6.25;;;10.30;99.90;;;;;;4266108;27;20039;-62
2024/02/10 06:04:18;;;;;;;8.68;6.22;;;10.30;99.90;;;;;;4265927;27;20045;-62
2024/02/10 06:06:20;;;;;;;10.65;5.82;;;10.30;99.90;;;;;;4266391;27;20119;-62
2024/02/10 06:08:23;;;;;;;7.97;5.65;;;10.30;99.90;;;;;;4266312;27;20477;-62
2024/02/10 06:10:25;;;;;;;9.90;5.90;;;10.40;99.90;;;;;;4266230;27;20051;-62
2024/02/10 06:12:28;;;;;;;11.32;6.18;;;10.40;99.90;;;;;;4266354;27;20088;-62
2024/02/10 06:14:33;;;;;;;11.18;6.93;;;10.40;99.90;;;;;;4266347;27;20050;-62
2024/02/10 06:16:39;;;;;;;9.52;6.22;;;10.30;99.90;;;;;;4265847;27;20069;-62
2024/02/10 06:18:41;;;;;;;10.43;6.53;;;10.40;99.90;;;;;;4265492;27;20054;-62
2024/02/10 06:20:45;;;;;;;10.80;5.63;;;10.40;99.90;;;;;;4265504;27;20047;-63
2024/02/10 06:22:49;;;;;;;12.15;6.85;;;10.50;99.90;;;;;;4265879;27;20043;-61
2024/02/10 06:24:56;;;;;;;12.05;6.45;;;10.50;99.90;;;;;;4266071;27;20046;-62
2024/02/10 06:26:58;;;;;;;9.35;5.40;;;10.40;99.90;;;;;;4266122;27;20043;-62
2024/02/10 06:29:00;;;;;;;10.95;6.07;;;10.40;99.90;;;;;;4268953;27;20074;-64
2024/02/10 06:31:05;;;;;;;10.07;6.85;;;10.50;99.90;;;;;;4267395;27;20047;-63
2024/02/10 06:33:07;;;;;;;8.68;6.28;;;10.50;99.90;;;;;;4265851;27;20043;-62
2024/02/10 06:35:10;;;;;;;9.93;6.35;;;10.50;99.90;;;;;;4265780;27;20183;-62
2024/02/10 06:37:13;;;;;;;10.27;6.07;;;10.40;99.90;;;;;;4247103;27;20043;-61
2024/02/10 06:39:15;;;;;;;11.73;5.85;;;10.40;99.90;;;;;;4265498;27;20051;-62
2024/02/10 06:41:17;;;;;;;9.93;6.55;;;10.40;99.90;;;;;;4265619;27;20406;-62
2024/02/10 06:43:19;;;;;;;10.75;6.45;;;10.40;99.90;;;;;;4265536;27;20399;-62
2024/02/10 06:45:23;;;;;;;12.63;6.40;;;10.40;99.90;;;;;;4265829;27;20387;-61
2024/02/10 06:47:27;;;;;;;9.52;6.80;;;10.40;99.90;;;;;;4265409;27;20526;-62
2024/02/10 06:49:30;;;;;;;9.50;6.85;;;10.40;99.90;;;;;;4265468;27;20053;-62
2024/02/10 06:51:33;;;;;;;13.85;6.35;;;10.40;99.90;;;;;;4265553;27;20047;-61
2024/02/10 06:53:35;;;;;;;13.00;6.78;;;10.40;99.90;;;;;;4265414;27;20049;-62
2024/02/10 06:55:37;;;;;;;9.73;6.47;;;10.40;99.90;;;;;;4265436;27;20054;-62
2024/02/10 06:57:44;;;;;;;8.32;5.88;;;10.40;99.90;;;;;;4265261;27;20053;-61
2024/02/10 06:59:49;;;;;;;12.95;6.40;;;10.40;99.90;;;;;;4265168;27;20122;-62
2024/02/10 07:01:54;;;;;;;8.60;5.82;;;10.40;99.90;;;;;;4264914;27;20078;-62
2024/02/10 07:03:58;;;;;;;10.32;6.45;;;10.40;99.90;;;;;;4265448;27;20092;-62
2024/02/10 07:06:00;;;;;;;10.95;6.47;;;10.50;99.90;;;;;;4265709;27;20038;-61
2024/02/10 07:08:05;;;;;;;9.00;6.00;;;10.50;99.90;;;;;;4268671;27;20111;-61
2024/02/10 07:10:13;;;;;;;9.45;5.90;;;10.40;99.90;;;;;;4268729;27;20041;-61
2024/02/10 07:12:15;;;;;;;11.35;6.88;;;10.50;99.90;;;;;;4268771;27;20039;-62
2024/02/10 07:14:18;;;;;;;12.15;6.82;;;10.50;99.90;;;;;;4269240;27;20039;-62
2024/02/10 07:16:20;;;;;;;10.55;6.03;;;10.50;99.90;;;;;;4270360;27;20045;-62
2024/02/10 07:18:22;;;;;;;9.82;6.53;;;10.50;99.90;;;;;;4270043;27;20122;-62
2024/02/10 07:20:26;;;;;;;12.52;6.18;;;10.50;99.90;;;;;;4268987;27;20057;-62
2024/02/10 07:22:33;;;;;;;11.30;7.30;;;10.50;99.90;;;;;;4268886;27;20516;-61
2024/02/10 07:24:36;;;;;;;13.82;6.13;;;10.50;99.90;;;;;;4268683;27;20043;-61
2024/02/10 07:26:42;;;;;;;12.32;6.10;;;10.50;99.90;;;;;;4250366;27;20051;-62
2024/02/10 07:28:46;;;;;;;10.82;7.22;;;10.50;99.90;;;;;;4268374;27;20126;-61
2024/02/10 07:30:51;;;;;;;11.63;6.77;;;10.60;99.90;;;;;;4268036;27;20095;-62
2024/02/10 07:32:56;;;;;;;10.13;6.20;;;10.60;99.90;;;;;;4268553;27;20447;-62
2024/02/10 07:35:00;;;;;;;9.35;6.38;;;10.60;99.90;;;;;;4268337;27;20047;-62
2024/02/10 07:37:06;;;;;;;10.50;6.85;;;10.60;99.90;;;;;;4268807;27;20070;-61
2024/02/10 07:39:09;;;;;;;11.07;6.55;;;10.60;99.90;;;;;;4268277;27;20058;-62
2024/02/10 07:41:11;;;;;;;13.07;6.72;;;10.50;99.90;;;;;;4250046;27;20422;-62
2024/02/10 07:43:15;;;;;;;9.27;6.80;;;10.50;99.90;;;;;;4268413;27;20043;-62
2024/02/10 07:45:18;;;;;;;9.48;6.50;;;10.60;99.90;;;;;;4268181;27;20054;-62
2024/02/10 07:47:20;;;;;;;11.07;6.97;;;10.60;99.90;;;;;;4268522;27;20057;-62
2024/02/10 07:49:22;;;;;;;11.98;6.78;;;10.50;99.90;;;;;;4268569;27;20066;-62
2024/02/10 07:51:25;;;;;;;12.82;7.45;;;10.60;99.90;;;;;;4268093;27;20045;-62
2024/02/10 07:53:28;;;;;;;13.10;6.70;;;10.60;99.90;;;;;;4268326;27;20038;-62
2024/02/10 07:55:35;;;;;;;13.80;6.95;;;10.70;99.90;;;;;;4268230;27;20055;-62
2024/02/10 07:57:39;;;;;;;11.40;6.82;;;10.70;99.90;;;;;;4268378;27;20046;-66
2024/02/10 07:59:41;;;;;;;15.52;7.47;;;10.70;99.90;;;;;;4268344;27;20050;-62
2024/02/10 08:01:46;;;;;;;11.90;6.88;;;10.70;99.90;;;;;;4267796;27;20054;-62
2024/02/10 08:03:48;;;;;;;11.73;7.05;;;10.70;99.90;;;;;;4268636;27;20055;-62
2024/02/10 08:05:51;;;;;;;14.20;7.03;;;10.70;99.90;;;;;;4268288;27;20481;-62
2024/02/10 08:08:03;;;;;;;10.57;7.32;;;10.70;99.90;;;;;;4268347;27;20050;-63
2024/02/10 08:10:20;;;;;;;14.43;7.35;;;10.80;99.90;;;;;;4268282;27;20499;-62
2024/02/10 08:12:23;;;;;;;11.45;7.85;;;10.80;99.90;;;;;;4268153;27;20043;-62
2024/02/10 08:14:25;;;;;;;14.55;8.10;;;10.80;99.90;;;;;;4267864;27;20054;-62
2024/02/10 08:16:43;;;;;;;12.73;8.07;;;10.80;99.90;;;;;;4267034;27;20053;-63
2024/02/10 08:18:45;;;;;;;15.57;7.15;;;10.80;99.90;;;;;;4269124;27;20038;-62
2024/02/10 08:20:58;;;;;;;13.43;7.43;;;10.90;99.90;;;;;;4268478;27;20054;-61
2024/02/10 08:23:00;;;;;;;10.70;7.20;;;10.90;99.90;;;;;;4267978;27;20045;-62
2024/02/10 08:25:09;;;;;;;12.55;6.80;;;10.90;99.90;;;;;;4249619;27;20486;-61
2024/02/10 08:27:15;;;;;;;16.40;6.75;;;11.00;99.90;;;;;;4268123;27;20111;-61
2024/02/10 08:29:19;;;;;;;13.93;7.15;;;11.00;99.90;;;;;;4267763;27;20047;-61
2024/02/10 08:31:21;;;;;;;8.93;5.22;;;11.10;99.90;;;;;;4267531;27;20157;-62
2024/02/10 08:33:33;;;;;;;14.47;7.30;;;11.00;99.90;;;;;;4267700;27;20038;-61
2024/02/10 08:35:38;;;;;;;14.98;7.97;;;11.00;99.90;;;;;;4267825;27;20449;-62
2024/02/10 08:37:42;;;;;;;12.27;7.18;;;11.00;99.90;;;;;;4266902;27;20500;-61
2024/02/10 08:39:45;;;;;;;12.87;7.47;;;11.10;99.90;;;;;;4267432;27;20053;-61
2024/02/10 08:41:50;;;;;;;13.00;7.55;;;11.10;99.90;;;;;;4267570;27;20961;-62
2024/02/10 08:43:53;;;;;;;;;;;11.10;99.90;;;;;;4267844;27;20039;-63
2024/02/10 08:45:57;;;;;;;12.65;6.78;;;11.10;99.90;;;;;;4267430;27;20380;-62
2024/02/10 08:48:01;;;;;;;12.27;7.13;;;11.00;99.90;;;;;;4267330;27;20108;-62
2024/02/10 08:50:08;;;;;;;14.05;6.93;;;11.00;99.90;;;;;;4267802;27;20043;-62
2024/02/10 08:52:16;;;;;;;14.25;7.22;;;11.00;99.90;;;;;;4267870;27;20397;-63
2024/02/10 08:54:20;;;;;;;17.42;7.75;;;11.00;99.90;;;;;;4269932;27;20077;-63
2024/02/10 08:56:23;;;;;;;17.88;7.68;;;11.10;99.90;;;;;;4268084;27;20043;-62
2024/02/10 08:58:27;;;;;;;15.10;7.57;;;11.10;99.90;;;;;;4255034;27;20051;-62
2024/02/10 09:00:34;;;;;;;13.35;7.72;;;11.10;99.90;;;;;;4249468;27;20479;-67
2024/02/10 09:02:36;;;;;;;12.75;7.53;;;11.10;99.90;;;;;;4264915;27;20046;-63
2024/02/10 09:04:51;;;;;;;13.65;8.38;;;11.20;99.90;;;;;;4257491;27;20070;-63
2024/02/10 09:06:54;;;;;;;10.43;7.45;;;11.20;99.90;;;;;;4249390;27;20114;-62
2024/02/10 09:09:03;;;;;;;13.57;7.05;;;11.20;99.90;;;;;;4249866;27;20047;-63
2024/02/10 09:11:06;;;;;;;13.57;7.82;;;11.20;99.90;;;;;;4258774;27;20039;-62
2024/02/10 09:13:09;;;;;;;11.25;7.15;;;11.30;99.90;;;;;;4238655;27;20056;-66
2024/02/10 09:15:14;;;;;;;14.95;6.93;;;11.30;99.90;;;;;;4260275;27;20046;-62
2024/02/10 09:17:17;;;;;;;13.75;7.13;;;11.30;99.90;;;;;;4266366;27;20085;-61
2024/02/10 09:19:20;;;;;;;12.15;7.00;;;11.30;99.90;;;;;;4266355;27;20061;-62
2024/02/10 09:21:24;;;;;;;16.38;7.72;;;11.30;99.90;;;;;;4266248;27;20053;-61
2024/02/10 09:23:29;;;;;;;11.27;7.40;;;11.40;99.90;;;;;;4266344;27;20042;-62
2024/02/10 09:25:36;;;;;;;11.38;7.70;;;11.40;99.90;;;;;;4266712;27;20047;-63
2024/02/10 09:27:40;;;;;;;13.95;7.35;;;11.40;99.90;;;;;;4264530;27;20455;-63
2024/02/10 09:29:48;;;;;;;10.80;7.20;;;11.40;99.90;;;;;;4249627;27;20046;-62
2024/02/10 09:32:11;;;;;;;12.30;7.57;;;11.40;99.90;;;;;;4232690;27;20081;-62
2024/02/10 09:34:15;;;;;;;14.20;7.88;;;11.40;99.90;;;;;;4249912;27;20486;-63
2024/02/10 09:36:17;;;;;;;10.50;7.20;;;11.40;99.90;;;;;;4247895;27;20506;-60
2024/02/10 09:38:22;;;;;;;11.60;7.70;;;11.50;99.90;;;;;;4248681;27;20041;-61
2024/02/10 09:40:24;;;;;;;11.07;7.93;;;11.50;99.90;;;;;;4247733;27;20043;-61
2024/02/10 09:42:29;;;;;;;11.32;7.65;;;11.50;99.90;;;;;;4250296;27;20081;-61
2024/02/10 09:44:31;;;;;;;10.93;6.88;;;11.70;99.90;;;;;;4248901;27;20067;-61
2024/02/10 09:46:35;;;;;;;14.23;7.95;;;11.70;99.90;;;;;;4248888;27;20125;-60
2024/02/10 09:48:47;;;;;;;13.05;8.90;;;11.70;99.90;;;;;;4249445;27;20111;-60
2024/02/10 09:50:49;;;;;;;14.57;7.97;;;11.70;99.90;;;;;;4247908;27;20038;-60
2024/02/10 09:52:51;;;;;;;10.68;8.77;;;11.80;99.90;;;;;;4232521;27;20050;-60
2024/02/10 09:54:55;;;;;;;11.23;7.78;;;11.80;99.90;;;;;;4246156;27;20074;-60
2024/02/10 09:56:59;;;;;;;15.63;8.33;;;11.80;99.90;;;;;;4248074;27;20054;-60
2024/02/10 09:59:01;;;;;;;13.82;8.50;;;11.80;99.90;;;;;;4248920;27;20046;-59
2024/02/10 10:01:04;;;;;;;12.52;7.97;;;11.80;99.90;;;;;;4248449;27;20066;-64
2024/02/10 10:03:07;;;;;;;12.15;8.05;;;11.80;99.90;;;;;;4250236;27;20072;-61
2024/02/10 10:05:11;;;;;;;11.10;7.93;;;11.90;99.90;;;;;;4251945;27;20066;-63
2024/02/10 10:07:15;;;;;;;12.60;7.85;;;11.90;99.90;;;;;;4249747;27;20042;-64
2024/02/10 10:09:20;;;;;;;11.38;7.82;;;11.90;99.90;;;;;;4232910;27;20046;-61
2024/02/10 10:11:23;;;;;;;10.85;8.15;;;11.90;99.90;;;;;;4248443;27;20393;-60
2024/02/10 10:13:25;;;;;;;11.38;7.65;;;11.90;99.90;;;;;;4249195;27;20046;-60
2024/02/10 10:15:31;;;;;;;11.55;7.72;;;12.00;99.90;;;;;;4248389;27;20066;-60
2024/02/10 10:17:36;;;;;;;13.48;7.50;;;12.00;99.90;;;;;;4247193;27;20077;-62
2024/02/10 10:19:38;;;;;;;9.05;6.95;;;12.10;99.90;;;;;;4248943;27;20047;-60
2024/02/10 10:21:42;;;;;;;14.25;7.80;;;12.10;99.90;;;;;;4247970;27;20071;-59
2024/02/10 10:23:46;;;;;;;11.55;8.05;;;12.10;99.90;;;;;;4248182;27;20035;-59
2024/02/10 10:25:49;;;;;;;11.63;7.13;;;12.10;99.90;;;;;;4246522;27;20043;-61
2024/02/10 10:27:51;;;;;;;11.30;7.85;;;12.10;99.90;;;;;;4247676;27;20043;-60
2024/02/10 10:29:54;;;;;;;9.55;6.38;;;12.20;99.90;;;;;;4238667;27;20058;-60
2024/02/10 10:31:59;;;;;;;9.77;6.95;;;12.20;99.90;;;;;;4248746;27;20670;-60
2024/02/10 10:34:03;;;;;;;11.40;6.93;;;12.20;99.90;;;;;;4248562;27;20039;-62
2024/02/10 10:36:07;;;;;;;15.30;7.17;;;12.20;99.90;;;;;;4248477;27;20421;-60
2024/02/10 10:38:12;;;;;;;10.37;6.97;;;12.40;99.90;;;;;;4247814;27;20066;-66
2024/02/10 10:40:14;;;;;;;10.25;6.45;;;12.40;99.90;;;;;;4228997;28;20456;-57